sensor_id;sensor_type;location;lat;lon;timestamp;pressure;altitude;pressure_sealevel;temperature;humidity
39823;BME280;25499;53.958;10.970;2023-11-21T07:47:33;101356.81;;;5.88;100.00
39823;BME280;25499;53.958;10.970;2023-11-21T07:50:01;101362.94;;;5.92;100.00
39823;BME280;25499;53.958;10.970;2023-11-21T07:52:28;101361.41;;;5.98;100.00
39823;BME280;25499;53.958;10.970;2023-11-21T07:54:55;101366.56;;;5.98;100.00
39823;BME280;25499;53.958;10.970;2023-11-21T07:57:23;101364.03;;;6.00;100.00
39823;BME280;25499;53.958;10.970;2023-11-21T07:59:50;101361.50;;;6.02;100.00
39823;BME280;25499;53.958;10.970;2023-11-21T08:02:19;101367.50;;;6.01;100.00
39823;BME280;25499;53.958;10.970;2023-11-21T08:04:47;101371.72;;;5.97;100.00
39823;BME280;25499;53.958;10.970;2023-11-21T08:07:15;101370.72;;;5.93;100.00
39823;BME280;25499;53.958;10.970;2023-11-21T08:09:42;101370.94;;;6.00;100.00
39823;BME280;25499;53.958;10.970;2023-11-21T08:12:10;101374.22;;;5.95;100.00
39823;BME280;25499;53.958;10.970;2023-11-21T08:14:37;101370.94;;;6.00;100.00
39823;BME280;25499;53.958;10.970;2023-11-21T08:17:04;101374.50;;;6.05;100.00
39823;BME280;25499;53.958;10.970;2023-11-21T08:19:31;101379.75;;;6.08;100.00
39823;BME280;25499;53.958;10.970;2023-11-21T08:22:00;101369.34;;;6.05;100.00
39823;BME280;25499;53.958;10.970;2023-11-21T08:24:27;101373.84;;;6.13;100.00
39823;BME280;25499;53.958;10.970;2023-11-21T08:26:54;101365.97;;;6.09;100.00
39823;BME280;25499;53.958;10.970;2023-11-21T08:29:23;101368.59;;;6.10;100.00
39823;BME280;25499;53.958;10.970;2023-11-21T08:31:50;101369.56;;;6.14;100.00
39823;BME280;25499;53.958;10.970;2023-11-21T08:34:17;101367.81;;;6.13;100.00
39823;BME280;25499;53.958;10.970;2023-11-21T08:36:44;101365.28;;;6.14;100.00
39823;BME280;25499;53.958;10.970;2023-11-21T08:39:12;101380.97;;;6.22;100.00
39823;BME280;25499;53.958;10.970;2023-11-21T08:41:41;101387.66;;;6.14;100.00
39823;BME280;25499;53.958;10.970;2023-11-21T08:44:08;101390.09;;;6.08;100.00
39823;BME280;25499;53.958;10.970;2023-11-21T08:46:36;101392.72;;;6.11;100.00
39823;BME280;25499;53.958;10.970;2023-11-21T08:49:03;101388.16;;;6.01;100.00
39823;BME280;25499;53.958;10.970;2023-11-21T08:51:31;101398.44;;;5.97;100.00
39823;BME280;25499;53.958;10.970;2023-11-21T08:53:58;101401.91;;;5.98;100.00
39823;BME280;25499;53.958;10.970;2023-11-21T08:56:30;101399.91;;;5.89;100.00
39823;BME280;25499;53.958;10.970;2023-11-21T08:58:57;101409.50;;;5.93;100.00
39823;BME280;25499;53.958;10.970;2023-11-21T09:01:26;101413.66;;;5.88;100.00
39823;BME280;25499;53.958;10.970;2023-11-21T09:03:53;101425.66;;;5.86;100.00
39823;BME280;25499;53.958;10.970;2023-11-21T09:06:20;101429.03;;;5.84;100.00
39823;BME280;25499;53.958;10.970;2023-11-21T09:08:47;101434.97;;;5.79;100.00
39823;BME280;25499;53.958;10.970;2023-11-21T09:11:15;101443.53;;;5.78;100.00
39823;BME280;25499;53.958;10.970;2023-11-21T09:13:43;101449.66;;;5.82;100.00
39823;BME280;25499;53.958;10.970;2023-11-21T09:16:10;101459.13;;;5.82;100.00
39823;BME280;25499;53.958;10.970;2023-11-21T09:18:38;101468.59;;;5.81;100.00
39823;BME280;25499;53.958;10.970;2023-11-21T09:21:06;101478.25;;;5.88;100.00
39823;BME280;25499;53.958;10.970;2023-11-21T09:23:34;101490.31;;;5.88;100.00
39823;BME280;25499;53.958;10.970;2023-11-21T09:26:01;101490.13;;;5.82;100.00
39823;BME280;25499;53.958;10.970;2023-11-21T09:28:28;101497.09;;;5.84;100.00
39823;BME280;25499;53.958;10.970;2023-11-21T09:30:56;101499.69;;;5.84;100.00
39823;BME280;25499;53.958;10.970;2023-11-21T09:33:23;101503.91;;;5.82;100.00
39823;BME280;25499;53.958;10.970;2023-11-21T09:35:51;101516.06;;;5.85;100.00
39823;BME280;25499;53.958;10.970;2023-11-21T09:38:18;101521.47;;;5.92;100.00
39823;BME280;25499;53.958;10.970;2023-11-21T09:40:45;101517.97;;;5.92;100.00
39823;BME280;25499;53.958;10.970;2023-11-21T09:43:16;101519.69;;;5.91;100.00
39823;BME280;25499;53.958;10.970;2023-11-21T09:45:44;101518.03;;;5.93;100.00
39823;BME280;25499;53.958;10.970;2023-11-21T09:48:13;101524.19;;;5.97;100.00
39823;BME280;25499;53.958;10.970;2023-11-21T09:50:42;101516.66;;;6.05;100.00
39823;BME280;25499;53.958;10.970;2023-11-21T09:53:13;101520.16;;;6.07;100.00
39823;BME280;25499;53.958;10.970;2023-11-21T09:55:43;101526.47;;;6.16;100.00
39823;BME280;25499;53.958;10.970;2023-11-21T09:58:13;101530.16;;;6.25;100.00
39823;BME280;25499;53.958;10.970;2023-11-21T10:00:41;101529.56;;;6.35;100.00
39823;BME280;25499;53.958;10.970;2023-11-21T10:03:08;101529.06;;;6.48;100.00
39823;BME280;25499;53.958;10.970;2023-11-21T10:05:37;101538.94;;;6.65;100.00
39823;BME280;25499;53.958;10.970;2023-11-21T10:08:07;101532.03;;;6.64;100.00
39823;BME280;25499;53.958;10.970;2023-11-21T10:10:37;101522.47;;;6.61;100.00
39823;BME280;25499;53.958;10.970;2023-11-21T10:13:08;101522.47;;;6.61;100.00
39823;BME280;25499;53.958;10.970;2023-11-21T10:15:38;101528.31;;;6.54;100.00
39823;BME280;25499;53.958;10.970;2023-11-21T10:18:10;101518.56;;;6.44;100.00
39823;BME280;25499;53.958;10.970;2023-11-21T10:20:39;101514.22;;;6.43;100.00
39823;BME280;25499;53.958;10.970;2023-11-21T10:23:06;101518.50;;;6.41;100.00
39823;BME280;25499;53.958;10.970;2023-11-21T10:25:36;101517.75;;;6.46;100.00
39823;BME280;25499;53.958;10.970;2023-11-21T10:28:04;101510.13;;;6.51;100.00
39823;BME280;25499;53.958;10.970;2023-11-21T10:30:33;101511.72;;;6.46;100.00
39823;BME280;25499;53.958;10.970;2023-11-21T10:33:02;101508.91;;;6.38;100.00
39823;BME280;25499;53.958;10.970;2023-11-21T10:35:42;101508.91;;;6.37;100.00
39823;BME280;25499;53.958;10.970;2023-11-21T10:38:12;101507.28;;;6.40;100.00
39823;BME280;25499;53.958;10.970;2023-11-21T10:40:41;101489.81;;;6.33;100.00
39823;BME280;25499;53.958;10.970;2023-11-21T10:43:12;101476.06;;;6.34;100.00
39823;BME280;25499;53.958;10.970;2023-11-21T10:45:40;101480.59;;;6.43;100.00
39823;BME280;25499;53.958;10.970;2023-11-21T10:48:08;101479.81;;;6.45;100.00
39823;BME280;25499;53.958;10.970;2023-11-21T10:50:36;101466.84;;;6.44;100.00
39823;BME280;25499;53.958;10.970;2023-11-21T10:53:05;101465.03;;;6.41;100.00
39823;BME280;25499;53.958;10.970;2023-11-21T10:55:34;101465.25;;;6.49;100.00
39823;BME280;25499;53.958;10.970;2023-11-21T10:58:02;101473.97;;;6.52;100.00
39823;BME280;25499;53.958;10.970;2023-11-21T11:00:31;101462.78;;;6.55;100.00
39823;BME280;25499;53.958;10.970;2023-11-21T11:02:59;101460.28;;;6.58;100.00
39823;BME280;25499;53.958;10.970;2023-11-21T11:05:27;101458.56;;;6.57;100.00
39823;BME280;25499;53.958;10.970;2023-11-21T11:07:58;101460.38;;;6.61;100.00
39823;BME280;25499;53.958;10.970;2023-11-21T11:10:30;101454.97;;;6.52;100.00
39823;BME280;25499;53.958;10.970;2023-11-21T11:12:57;101449.72;;;6.49;100.00
39823;BME280;25499;53.958;10.970;2023-11-21T11:15:25;101456.63;;;6.48;100.00
39823;BME280;25499;53.958;10.970;2023-11-21T11:17:53;101456.41;;;6.41;100.00
39823;BME280;25499;53.958;10.970;2023-11-21T11:20:24;101460.50;;;6.32;100.00
39823;BME280;25499;53.958;10.970;2023-11-21T11:23:04;101465.72;;;6.34;100.00
39823;BME280;25499;53.958;10.970;2023-11-21T11:26:04;101461.41;;;6.34;100.00
39823;BME280;25499;53.958;10.970;2023-11-21T11:28:38;101473.31;;;6.26;100.00
39823;BME280;25499;53.958;10.970;2023-11-21T11:31:17;101469.91;;;6.29;100.00
39823;BME280;25499;53.958;10.970;2023-11-21T11:33:53;101460.16;;;6.19;100.00
39823;BME280;25499;53.958;10.970;2023-11-21T11:36:29;101455.72;;;6.13;100.00
39823;BME280;25499;53.958;10.970;2023-11-21T11:38:59;101458.34;;;6.14;100.00
39823;BME280;25499;53.958;10.970;2023-11-21T11:41:31;101460.03;;;6.14;100.00
39823;BME280;25499;53.958;10.970;2023-11-21T11:44:02;101450.53;;;6.13;100.00
39823;BME280;25499;53.958;10.970;2023-11-21T11:46:44;101450.53;;;6.13;100.00
39823;BME280;25499;53.958;10.970;2023-11-21T11:49:23;101451.59;;;6.20;100.00
39823;BME280;25499;53.958;10.970;2023-11-21T11:54:53;101447.28;;;6.20;100.00
39823;BME280;25499;53.958;10.970;2023-11-21T11:57:23;101452.53;;;6.23;100.00
39823;BME280;25499;53.958;10.970;2023-11-21T12:00:11;101465.59;;;6.29;100.00
39823;BME280;25499;53.958;10.970;2023-11-21T12:02:42;101479.59;;;6.38;100.00
39823;BME280;25499;53.958;10.970;2023-11-21T12:05:13;101480.59;;;6.43;100.00
39823;BME280;25499;53.958;10.970;2023-11-21T12:07:47;101478.88;;;6.42;100.00
39823;BME280;25499;53.958;10.970;2023-11-21T12:10:16;101475.59;;;6.49;100.00
39823;BME280;25499;53.958;10.970;2023-11-21T12:12:46;101480.00;;;6.53;100.00
39823;BME280;25499;53.958;10.970;2023-11-21T12:15:13;101479.25;;;6.57;100.00
39823;BME280;25499;53.958;10.970;2023-11-21T12:17:41;101486.31;;;6.64;100.00
39823;BME280;25499;53.958;10.970;2023-11-21T12:20:10;101490.75;;;6.70;100.00
39823;BME280;25499;53.958;10.970;2023-11-21T12:22:45;101490.81;;;6.71;100.00
39823;BME280;25499;53.958;10.970;2023-11-21T12:25:15;101473.31;;;6.61;100.00
39823;BME280;25499;53.958;10.970;2023-11-21T12:27:46;101463.56;;;6.51;100.00
39823;BME280;25499;53.958;10.970;2023-11-21T12:30:16;101468.53;;;6.42;100.00
39823;BME280;25499;53.958;10.970;2023-11-21T12:32:44;101471.63;;;6.28;100.00
39823;BME280;25499;53.958;10.970;2023-11-21T12:35:12;101478.97;;;6.13;100.00
39823;BME280;25499;53.958;10.970;2023-11-21T12:37:39;101500.44;;;6.10;100.00
39823;BME280;25499;53.958;10.970;2023-11-21T12:40:10;101515.56;;;5.96;100.00
39823;BME280;25499;53.958;10.970;2023-11-21T12:42:42;101530.59;;;5.81;100.00
39823;BME280;25499;53.958;10.970;2023-11-21T12:45:19;101575.44;;;5.83;100.00
39823;BME280;25499;53.958;10.970;2023-11-21T12:47:48;101583.00;;;5.75;100.00
39823;BME280;25499;53.958;10.970;2023-11-21T12:50:18;101597.50;;;5.72;100.00
39823;BME280;25499;53.958;10.970;2023-11-21T12:52:50;101626.22;;;5.81;100.00
39823;BME280;25499;53.958;10.970;2023-11-21T12:55:20;101626.00;;;5.75;100.00
39823;BME280;25499;53.958;10.970;2023-11-21T12:57:51;101626.72;;;5.69;100.00
39823;BME280;25499;53.958;10.970;2023-11-21T13:00:31;101614.09;;;5.51;100.00
39823;BME280;25499;53.958;10.970;2023-11-21T13:03:03;101618.44;;;5.52;100.00
39823;BME280;25499;53.958;10.970;2023-11-21T13:05:32;101631.13;;;5.46;100.00
39823;BME280;25499;53.958;10.970;2023-11-21T13:08:03;101634.69;;;5.50;100.00
39823;BME280;25499;53.958;10.970;2023-11-21T13:10:33;101637.97;;;5.44;100.00
39823;BME280;25499;53.958;10.970;2023-11-21T13:13:03;101650.88;;;5.44;100.00
39823;BME280;25499;53.958;10.970;2023-11-21T13:15:38;101656.00;;;5.42;100.00
39823;BME280;25499;53.958;10.970;2023-11-21T13:18:06;101670.63;;;5.42;100.00
39823;BME280;25499;53.958;10.970;2023-11-21T13:20:35;101678.34;;;5.42;100.00
39823;BME280;25499;53.958;10.970;2023-11-21T13:23:07;101680.88;;;5.40;100.00
39823;BME280;25499;53.958;10.970;2023-11-21T13:25:36;101686.28;;;5.47;100.00
39823;BME280;25499;53.958;10.970;2023-11-21T13:28:04;101693.84;;;5.42;100.00
39823;BME280;25499;53.958;10.970;2023-11-21T13:30:31;101705.75;;;5.37;100.00
39823;BME280;25499;53.958;10.970;2023-11-21T13:33:02;101716.78;;;5.33;100.00
39823;BME280;25499;53.958;10.970;2023-11-21T13:35:32;101703.50;;;5.22;100.00
39823;BME280;25499;53.958;10.970;2023-11-21T13:38:05;101699.78;;;5.14;100.00
39823;BME280;25499;53.958;10.970;2023-11-21T13:40:32;101694.66;;;5.15;100.00
39823;BME280;25499;53.958;10.970;2023-11-21T13:43:05;101694.84;;;5.20;100.00
39823;BME280;25499;53.958;10.970;2023-11-21T13:45:35;101710.44;;;5.23;100.00
39823;BME280;25499;53.958;10.970;2023-11-21T13:48:04;101708.88;;;5.28;100.00
39823;BME280;25499;53.958;10.970;2023-11-21T13:50:35;101715.72;;;5.26;100.00
39823;BME280;25499;53.958;10.970;2023-11-21T13:53:03;101717.56;;;5.30;100.00
39823;BME280;25499;53.958;10.970;2023-11-21T13:55:36;101728.63;;;5.28;100.00
39823;BME280;25499;53.958;10.970;2023-11-21T13:58:05;101736.50;;;5.31;100.00
39823;BME280;25499;53.958;10.970;2023-11-21T14:00:35;101740.91;;;5.33;100.00
39823;BME280;25499;53.958;10.970;2023-11-21T14:03:11;101748.72;;;5.35;100.00
39823;BME280;25499;53.958;10.970;2023-11-21T14:05:46;101750.44;;;5.36;100.00
39823;BME280;25499;53.958;10.970;2023-11-21T14:08:18;101748.47;;;5.29;100.00
39823;BME280;25499;53.958;10.970;2023-11-21T14:10:46;101756.91;;;5.23;100.00
39823;BME280;25499;53.958;10.970;2023-11-21T14:13:16;101764.09;;;5.32;100.00
39823;BME280;25499;53.958;10.970;2023-11-21T14:15:43;101758.88;;;5.06;100.00
39823;BME280;25499;53.958;10.970;2023-11-21T14:18:13;101762.09;;;5.00;100.00
39823;BME280;25499;53.958;10.970;2023-11-21T14:20:43;101769.97;;;5.03;100.00
39823;BME280;25499;53.958;10.970;2023-11-21T14:23:10;101771.38;;;4.95;100.00
39823;BME280;25499;53.958;10.970;2023-11-21T14:25:38;101782.50;;;4.93;100.00
39823;BME280;25499;53.958;10.970;2023-11-21T14:28:07;101781.63;;;4.92;100.00
39823;BME280;25499;53.958;10.970;2023-11-21T14:30:37;101781.66;;;4.94;100.00
39823;BME280;25499;53.958;10.970;2023-11-21T14:33:05;101791.09;;;4.93;100.00
39823;BME280;25499;53.958;10.970;2023-11-21T14:35:35;101791.03;;;4.92;100.00
39823;BME280;25499;53.958;10.970;2023-11-21T14:38:02;101800.13;;;5.04;100.00
39823;BME280;25499;53.958;10.970;2023-11-21T14:40:30;101801.34;;;4.92;100.00
39823;BME280;25499;53.958;10.970;2023-11-21T14:42:59;101811.47;;;4.85;100.00
39823;BME280;25499;53.958;10.970;2023-11-21T14:45:26;101814.00;;;4.84;100.00
39823;BME280;25499;53.958;10.970;2023-11-21T14:47:55;101831.34;;;4.88;100.00
39823;BME280;25499;53.958;10.970;2023-11-21T14:50:32;101823.53;;;4.86;100.00
39823;BME280;25499;53.958;10.970;2023-11-21T14:53:17;101843.50;;;4.91;100.00
39823;BME280;25499;53.958;10.970;2023-11-21T14:56:04;101852.34;;;4.97;100.00
39823;BME280;25499;53.958;10.970;2023-11-21T14:58:33;101859.25;;;4.98;100.00
39823;BME280;25499;53.958;10.970;2023-11-21T15:01:00;101868.22;;;4.85;100.00
39823;BME280;25499;53.958;10.970;2023-11-21T15:03:28;101870.50;;;4.78;100.00
39823;BME280;25499;53.958;10.970;2023-11-21T15:06:09;101874.13;;;4.60;100.00
39823;BME280;25499;53.958;10.970;2023-11-21T15:08:50;101863.44;;;4.51;100.00
39823;BME280;25499;53.958;10.970;2023-11-21T15:11:35;101871.63;;;4.41;100.00
39823;BME280;25499;53.958;10.970;2023-11-21T15:14:04;101861.16;;;4.36;100.00
39823;BME280;25499;53.958;10.970;2023-11-21T15:16:33;101851.31;;;4.27;100.00
39823;BME280;25499;53.958;10.970;2023-11-21T15:19:04;101855.53;;;4.25;100.00
39823;BME280;25499;53.958;10.970;2023-11-21T15:21:32;101853.66;;;4.21;100.00
39823;BME280;25499;53.958;10.970;2023-11-21T15:24:00;101863.22;;;4.24;100.00
39823;BME280;25499;53.958;10.970;2023-11-21T15:26:28;101865.84;;;4.25;100.00
39823;BME280;25499;53.958;10.970;2023-11-21T15:28:56;101869.44;;;4.29;100.00
39823;BME280;25499;53.958;10.970;2023-11-21T15:31:23;101876.22;;;4.27;100.00
39823;BME280;25499;53.958;10.970;2023-11-21T15:33:50;101877.16;;;4.29;100.00
39823;BME280;25499;53.958;10.970;2023-11-21T15:36:18;101876.22;;;4.27;100.00
39823;BME280;25499;53.958;10.970;2023-11-21T15:38:45;101879.81;;;4.30;100.00
39823;BME280;25499;53.958;10.970;2023-11-21T15:41:14;101882.19;;;4.26;100.00
39823;BME280;25499;53.958;10.970;2023-11-21T15:43:41;101888.19;;;4.25;100.00
39823;BME280;25499;53.958;10.970;2023-11-21T15:46:08;101896.13;;;4.29;100.00
39823;BME280;25499;53.958;10.970;2023-11-21T15:48:35;101889.91;;;4.26;100.00
39823;BME280;25499;53.958;10.970;2023-11-21T15:51:04;101897.72;;;4.27;100.00
39823;BME280;25499;53.958;10.970;2023-11-21T15:53:34;101913.97;;;4.25;100.00
39823;BME280;25499;53.958;10.970;2023-11-21T15:56:01;101917.34;;;4.24;100.00
39823;BME280;25499;53.958;10.970;2023-11-21T15:58:31;101928.66;;;4.27;100.00
39823;BME280;25499;53.958;10.970;2023-11-21T16:00:59;101922.75;;;4.30;100.00
39823;BME280;25499;53.958;10.970;2023-11-21T16:03:26;101924.63;;;4.34;100.00
39823;BME280;25499;53.958;10.970;2023-11-21T16:05:55;101934.50;;;4.44;100.00
39823;BME280;25499;53.958;10.970;2023-11-21T16:08:22;101943.31;;;4.49;100.00
39823;BME280;25499;53.958;10.970;2023-11-21T16:10:49;101945.22;;;4.54;100.00
39823;BME280;25499;53.958;10.970;2023-11-21T16:13:16;101947.94;;;4.57;100.00
39823;BME280;25499;53.958;10.970;2023-11-21T16:15:46;101947.03;;;4.56;100.00
39823;BME280;25499;53.958;10.970;2023-11-21T16:18:15;101956.72;;;4.62;100.00
39823;BME280;25499;53.958;10.970;2023-11-21T16:20:41;101961.69;;;4.57;100.00
39823;BME280;25499;53.958;10.970;2023-11-21T16:23:09;101962.41;;;4.53;100.00
39823;BME280;25499;53.958;10.970;2023-11-21T16:25:36;101971.00;;;4.54;100.00
39823;BME280;25499;53.958;10.970;2023-11-21T16:28:04;101985.72;;;4.56;100.00
39823;BME280;25499;53.958;10.970;2023-11-21T16:30:31;102000.44;;;4.59;100.00
39823;BME280;25499;53.958;10.970;2023-11-21T16:33:01;102009.88;;;4.58;100.00
39823;BME280;25499;53.958;10.970;2023-11-21T16:35:29;101995.72;;;4.48;100.00
39823;BME280;25499;53.958;10.970;2023-11-21T16:37:57;101990.66;;;4.30;100.00
39823;BME280;25499;53.958;10.970;2023-11-21T16:40:24;101988.78;;;4.26;100.00
39823;BME280;25499;53.958;10.970;2023-11-21T16:42:51;101988.94;;;4.31;100.00
39823;BME280;25499;53.958;10.970;2023-11-21T16:45:18;101997.16;;;4.22;100.00
39823;BME280;25499;53.958;10.970;2023-11-21T16:47:45;102007.41;;;4.21;100.00
39823;BME280;25499;53.958;10.970;2023-11-21T16:50:13;102006.34;;;4.16;100.00
39823;BME280;25499;53.958;10.970;2023-11-21T16:52:41;102022.56;;;4.13;100.00
39823;BME280;25499;53.958;10.970;2023-11-21T16:55:09;102018.75;;;4.05;100.00
39823;BME280;25499;53.958;10.970;2023-11-21T16:57:38;102023.91;;;4.05;100.00
39823;BME280;25499;53.958;10.970;2023-11-21T17:00:05;102034.00;;;4.00;100.00
39823;BME280;25499;53.958;10.970;2023-11-21T17:02:37;102038.28;;;4.00;100.00
39823;BME280;25499;53.958;10.970;2023-11-21T17:05:05;102045.06;;;3.98;100.00
39823;BME280;25499;53.958;10.970;2023-11-21T17:07:34;102052.19;;;4.03;100.00
39823;BME280;25499;53.958;10.970;2023-11-21T17:10:01;102062.50;;;4.03;100.00
39823;BME280;25499;53.958;10.970;2023-11-21T17:12:32;102076.31;;;4.05;100.00
39823;BME280;25499;53.958;10.970;2023-11-21T17:15:01;102084.59;;;3.98;100.00
39823;BME280;25499;53.958;10.970;2023-11-21T17:17:28;102084.25;;;3.90;100.00
39823;BME280;25499;53.958;10.970;2023-11-21T17:19:55;102088.72;;;3.95;100.00
39823;BME280;25499;53.958;10.970;2023-11-21T17:22:23;102094.97;;;4.00;100.00
39823;BME280;25499;53.958;10.970;2023-11-21T17:24:51;102091.16;;;3.91;100.00
39823;BME280;25499;53.958;10.970;2023-11-21T17:27:18;102098.97;;;3.93;100.00
39823;BME280;25499;53.958;10.970;2023-11-21T17:29:50;102111.13;;;3.96;100.00
39823;BME280;25499;53.958;10.970;2023-11-21T17:32:19;102118.63;;;3.91;100.00
39823;BME280;25499;53.958;10.970;2023-11-21T17:34:46;102122.84;;;3.89;100.00
39823;BME280;25499;53.958;10.970;2023-11-21T17:37:14;102128.63;;;3.85;100.00
39823;BME280;25499;53.958;10.970;2023-11-21T17:39:41;102129.47;;;3.84;100.00
39823;BME280;25499;53.958;10.970;2023-11-21T17:42:10;102144.25;;;3.88;100.00
39823;BME280;25499;53.958;10.970;2023-11-21T17:44:38;102144.09;;;3.85;100.00
39823;BME280;25499;53.958;10.970;2023-11-21T17:47:05;102142.03;;;3.78;100.00
39823;BME280;25499;53.958;10.970;2023-11-21T17:49:32;102148.16;;;3.80;100.00
39823;BME280;25499;53.958;10.970;2023-11-21T17:51:59;102158.38;;;3.78;100.00
39823;BME280;25499;53.958;10.970;2023-11-21T17:54:26;102165.31;;;3.79;100.00
39823;BME280;25499;53.958;10.970;2023-11-21T17:56:53;102170.00;;;3.88;100.00
39823;BME280;25499;53.958;10.970;2023-11-21T17:59:21;102182.88;;;3.88;100.00
39823;BME280;25499;53.958;10.970;2023-11-21T18:01:48;102184.75;;;3.90;100.00
39823;BME280;25499;53.958;10.970;2023-11-21T18:04:16;102190.16;;;3.97;100.00
39823;BME280;25499;53.958;10.970;2023-11-21T18:06:43;102226.53;;;4.03;100.00
39823;BME280;25499;53.958;10.970;2023-11-21T18:09:10;102232.09;;;4.12;100.00
39823;BME280;25499;53.958;10.970;2023-11-21T18:11:37;102220.84;;;3.92;100.00
39823;BME280;25499;53.958;10.970;2023-11-21T18:14:04;102217.41;;;3.73;100.00
39823;BME280;25499;53.958;10.970;2023-11-21T18:16:36;102217.63;;;3.60;100.00
39823;BME280;25499;53.958;10.970;2023-11-21T18:19:04;102221.16;;;3.62;100.00
39823;BME280;25499;53.958;10.970;2023-11-21T18:21:31;102221.66;;;3.55;100.00
39823;BME280;25499;53.958;10.970;2023-11-21T18:23:58;102226.72;;;3.53;100.00
39823;BME280;25499;53.958;10.970;2023-11-21T18:26:25;102228.13;;;3.47;100.00
39823;BME280;25499;53.958;10.970;2023-11-21T18:28:52;102237.59;;;3.48;100.00
39823;BME280;25499;53.958;10.970;2023-11-21T18:31:19;102240.50;;;3.38;100.00
39823;BME280;25499;53.958;10.970;2023-11-21T18:33:47;102253.84;;;3.63;100.00
39823;BME280;25499;53.958;10.970;2023-11-21T18:36:14;102257.72;;;3.55;100.00
39823;BME280;25499;53.958;10.970;2023-11-21T18:38:41;102257.47;;;3.50;100.00
39823;BME280;25499;53.958;10.970;2023-11-21T18:41:08;102259.97;;;3.49;100.00
39823;BME280;25499;53.958;10.970;2023-11-21T18:43:36;102255.16;;;3.39;100.00
39823;BME280;25499;53.958;10.970;2023-11-21T18:46:02;102265.63;;;3.42;100.00
39823;BME280;25499;53.958;10.970;2023-11-21T18:48:31;102266.47;;;3.24;100.00
39823;BME280;25499;53.958;10.970;2023-11-21T18:50:59;102276.34;;;3.33;100.00
39823;BME280;25499;53.958;10.970;2023-11-21T18:53:26;102281.16;;;3.43;100.00
39823;BME280;25499;53.958;10.970;2023-11-21T18:55:55;102282.53;;;3.36;100.00
39823;BME280;25499;53.958;10.970;2023-11-21T18:58:22;102282.53;;;3.36;100.00
39823;BME280;25499;53.958;10.970;2023-11-21T19:00:49;102272.72;;;3.29;100.00
39823;BME280;25499;53.958;10.970;2023-11-21T19:03:16;102282.03;;;3.27;100.00
39823;BME280;25499;53.958;10.970;2023-11-21T19:05:43;102300.91;;;3.44;100.00
39823;BME280;25499;53.958;10.970;2023-11-21T19:08:11;102297.97;;;3.36;100.00
39823;BME280;25499;53.958;10.970;2023-11-21T19:10:38;102296.00;;;3.49;100.00
39823;BME280;25499;53.958;10.970;2023-11-21T19:13:05;102288.53;;;3.37;100.00
39823;BME280;25499;53.958;10.970;2023-11-21T19:15:32;102288.47;;;3.35;100.00
39823;BME280;25499;53.958;10.970;2023-11-21T19:18:01;102296.03;;;3.32;100.00
39823;BME280;25499;53.958;10.970;2023-11-21T19:20:28;102294.97;;;3.29;100.00
39823;BME280;25499;53.958;10.970;2023-11-21T19:22:57;102299.34;;;3.30;100.00
39823;BME280;25499;53.958;10.970;2023-11-21T19:25:27;102300.47;;;3.35;100.00
39823;BME280;25499;53.958;10.970;2023-11-21T19:27:53;102302.78;;;3.30;100.00
39823;BME280;25499;53.958;10.970;2023-11-21T19:30:21;102306.91;;;3.27;100.00
39823;BME280;25499;53.958;10.970;2023-11-21T19:32:47;102315.41;;;3.26;100.00
39823;BME280;25499;53.958;10.970;2023-11-21T19:35:14;102324.66;;;3.22;100.00
39823;BME280;25499;53.958;10.970;2023-11-21T19:37:41;102334.06;;;3.22;100.00
39823;BME280;25499;53.958;10.970;2023-11-21T19:40:09;102339.22;;;3.22;100.00
39823;BME280;25499;53.958;10.970;2023-11-21T19:42:37;102334.94;;;3.22;100.00
39823;BME280;25499;53.958;10.970;2023-11-21T19:45:06;102327.72;;;3.31;100.00
39823;BME280;25499;53.958;10.970;2023-11-21T19:47:33;102341.06;;;3.41;100.00
39823;BME280;25499;53.958;10.970;2023-11-21T19:50:04;102333.84;;;3.33;100.00
39823;BME280;25499;53.958;10.970;2023-11-21T19:52:32;102336.16;;;3.29;100.00
39823;BME280;25499;53.958;10.970;2023-11-21T19:55:01;102337.84;;;3.28;100.00
39823;BME280;25499;53.958;10.970;2023-11-21T19:57:29;102339.22;;;3.22;100.00
39823;BME280;25499;53.958;10.970;2023-11-21T19:59:57;102347.34;;;3.13;100.00
39823;BME280;25499;53.958;10.970;2023-11-21T20:02:24;102345.66;;;3.13;100.00
39823;BME280;25499;53.958;10.970;2023-11-21T20:04:51;102359.72;;;3.20;100.00
39823;BME280;25499;53.958;10.970;2023-11-21T20:07:19;102357.63;;;3.13;100.00
39823;BME280;25499;53.958;10.970;2023-11-21T20:09:48;102361.44;;;3.20;100.00
39823;BME280;25499;53.958;10.970;2023-11-21T20:12:15;102363.03;;;3.17;100.00
39823;BME280;25499;53.958;10.970;2023-11-21T20:14:42;102379.22;;;3.31;100.00
39823;BME280;25499;53.958;10.970;2023-11-21T20:17:10;102371.50;;;3.31;100.00
39823;BME280;25499;53.958;10.970;2023-11-21T20:19:37;102370.66;;;3.32;100.00
39823;BME280;25499;53.958;10.970;2023-11-21T20:22:06;102378.16;;;3.44;100.00
39823;BME280;25499;53.958;10.970;2023-11-21T20:24:33;102367.56;;;3.38;100.00
39823;BME280;25499;53.958;10.970;2023-11-21T20:27:01;102372.63;;;3.36;100.00
39823;BME280;25499;53.958;10.970;2023-11-21T20:29:28;102370.03;;;3.36;100.00
39823;BME280;25499;53.958;10.970;2023-11-21T20:31:55;102361.13;;;3.46;100.00
39823;BME280;25499;53.958;10.970;2023-11-21T20:34:23;102350.81;;;3.46;100.00
39823;BME280;25499;53.958;10.970;2023-11-21T20:36:51;102342.44;;;3.34;100.00
39823;BME280;25499;53.958;10.970;2023-11-21T20:39:18;102337.19;;;3.32;100.00